La Palma > ESTACION METEOROLÓGICA Las Cabezadas - Tijarafe

DATOS ACTUALES Online

Ultima actulizacion 1 h 10 minutos

18.2 ºC

Temperatura

94

Humedad (%)

Presión (mb)

0

Precipitación (mm)

1.4 NW

Viento (Km/h)

DATOS DIARIOS

Temperatura últimas 24 horas (ºC)

Humedad últimas 24 horas (%)

Presión atmosférica últimas 24 horas (mb)

Precipitaciones últimas 23 horas (mm)

Viento últimas 24 horas (Km/h)

Hora Temperatura (°C) ºC Precipitación (mm) mm Presión (mb) mb Humedad (%) % Viento (Km/h) km/h
15 - 23:00 19.4 0 0 83 1.7 O
16 - 00:00 20.9 0 0 61 1.5 NW
16 - 01:00 21.6 0 0 49 1.6 NW
16 - 02:00 20.5 0 0 69 0.7 NO
16 - 03:00 19.5 0 0 71 1.2 O
16 - 04:00 20.2 0 0 60 0.4 NW
16 - 05:00 18.7 0 0 74 2 NW
16 - 06:00 19.8 0 0 68 0.9 O
16 - 07:00 21.1 0 0 48 0.7 N
16 - 08:00 22 0 0 36 0.6 W
16 - 09:00 23.2 0 0 37 0.6 O
16 - 10:00 21.5 0 0 69 0.3 W
16 - 11:00 21.5 0 0 78 1.1 NW
16 - 12:00 23 0 0 68 0.9 NW
16 - 13:00 24 0 0 70 1.3 W
16 - 14:00 26.2 0 0 50 1.4 W
16 - 15:00 23.3 0 0 68 1.4 SO
16 - 16:00 25.5 0 0 65 1.2 W
16 - 17:00 24 0 0 72 1.6 W
16 - 18:00 23.6 0 0 71 1.3 O
16 - 19:00 22.6 0 0 77 1.9 NO
16 - 20:00 23.5 0 0 69 2.2 W
16 - 21:00 19.3 0 0 89 0.5 N
16 - 22:00 18.2 0 0 94 1.4 NW
16 - 23:00
Apalmet utiliza cookies propias y de terceros para mejorar la usabilidad y la experiencia web. Política de cookies.